Main page
METAR-TAF:

METAR-TAF

Airports :

Zadar Airport

Zadar, Croatia

latitude: 44-06N, longitude: 015-21E, elevation: 82 m

Current weather observation

The report was made 37 minutes ago, at 20:30 UTC
Wind 5 kt from the Southeast
Temperature 3°C
Humidity 70%
Pressure 1008 hPa
Visibility 10 km or more
no clouds below 1500 m and no cumulonimbus

METAR: LDZD 112030Z 14005KT CAVOK 03/M02 Q1008 NOSIG

Time: 22:07 (21:07 UTC)

Forecast

The report was made 3 hours and 42 minutes ago, at 17:25 UTC
Forecast valid from 11 at 18 UTC to 12 at 18 UTC
Wind 6 kt from the East/Northeast
Visibility 10 km or more
no clouds below 1500 m and no cumulonimbus
Becoming
from 12 at 09 UTC to 12 at 11 UTC
Wind 7 kt from the East/Southeast
Temporary
from 12 at 15 UTC to 12 at 18 UTC
Broken clouds at a height of 1400 ft
rain

TAF: LDZD 111725Z 1118/1218 06006KT CAVOK TX09/1212Z TNM01/1203Z BECMG 1209/1211 12007KT TEMPO 1215/1218 RA BKN014

Weather observations and forecasts of more than 4000 airports (METAR and TAF reports).

The available stations are represented by yellow and red dots on the map.

Hover mouse over dot to see the name of the station.

Then click to see weather observations and forecasts.

To change the map : click on the green buttons with a black cross to zoom in, on the green button with a dash to zoom out, or on the green arrows for adjacent maps.


METAR-TAF: